createdAt,value
2022-11-28T00:00:06.433Z,101983.13
2022-11-28T00:02:33.087Z,101980.44
2022-11-28T00:04:59.683Z,101975.94
2022-11-28T00:07:26.521Z,101966.09
2022-11-28T00:09:53.167Z,101973.97
2022-11-28T00:12:19.713Z,101966.16
2022-11-28T00:14:46.465Z,101962.72
2022-11-28T00:17:13.015Z,101962.91
2022-11-28T00:19:39.571Z,101961.34
2022-11-28T00:22:06.249Z,101961.34
2022-11-28T00:24:32.803Z,101961.34
2022-11-28T00:26:59.485Z,101949.69
2022-11-28T00:29:26.202Z,101950.47
2022-11-28T00:31:52.775Z,101944.00
2022-11-28T00:34:19.471Z,101943.91
2022-11-28T00:36:46.992Z,101948.31
2022-11-28T00:39:14.694Z,101942.78
2022-11-28T00:41:41.282Z,101931.81
2022-11-28T00:44:07.974Z,101928.97
2022-11-28T00:46:34.559Z,101928.03
2022-11-28T00:49:01.229Z,101926.97
2022-11-28T00:51:31.519Z,101925.97
2022-11-28T00:53:59.511Z,101922.50
2022-11-28T00:56:29.784Z,101919.91
2022-11-28T00:58:56.868Z,101917.50
2022-11-28T01:01:26.498Z,101914.81
2022-11-28T01:03:54.374Z,101905.84
2022-11-28T01:06:29.139Z,101913.69
2022-11-28T01:08:58.242Z,101915.41
2022-11-28T01:11:25.256Z,101918.00
2022-11-28T01:13:55.988Z,101915.25
2022-11-28T01:16:23.066Z,101909.91
2022-11-28T01:18:49.967Z,101910.75
2022-11-28T01:21:16.784Z,101909.97
2022-11-28T01:23:43.379Z,101911.69
2022-11-28T01:26:12.559Z,101910.75
2022-11-28T01:28:39.197Z,101907.22
2022-11-28T01:31:07.619Z,101909.00
2022-11-28T01:33:34.175Z,101914.28
2022-11-28T01:36:01.050Z,101905.41
2022-11-28T01:38:27.954Z,101907.88
2022-11-28T01:40:55.727Z,101911.25
2022-11-28T01:43:23.459Z,101899.63
2022-11-28T01:45:50.008Z,101910.31
2022-11-28T01:48:22.866Z,101903.84
2022-11-28T01:50:51.602Z,101892.16
2022-11-28T01:53:18.364Z,101896.56
2022-11-28T01:56:02.623Z,101885.84
2022-11-28T01:58:30.623Z,101877.81
2022-11-28T02:00:57.260Z,101869.63
2022-11-28T02:03:28.049Z,101861.50
2022-11-28T02:05:54.870Z,101857.00
2022-11-28T02:08:21.426Z,101855.09
2022-11-28T02:11:04.033Z,101853.13
2022-11-28T02:13:49.392Z,101848.59
2022-11-28T02:16:18.968Z,101844.97
2022-11-28T02:18:57.437Z,101836.00
2022-11-28T02:21:27.734Z,101836.75
2022-11-28T02:24:15.912Z,101827.97
2022-11-28T02:27:04.392Z,101827.09
2022-11-28T02:30:01.272Z,101813.81
2022-11-28T02:32:57.704Z,101824.50
2022-11-28T02:35:47.179Z,101810.34
2022-11-28T02:38:27.470Z,101812.44
2022-11-28T02:41:07.303Z,101818.91
2022-11-28T02:43:40.881Z,101814.53
2022-11-28T02:46:26.277Z,101815.38
2022-11-28T02:49:03.769Z,101805.53
2022-11-28T02:51:42.485Z,101800.09
2022-11-28T02:54:11.416Z,101801.72
2022-11-28T02:56:38.302Z,101803.38
2022-11-28T02:59:05.372Z,101800.69
2022-11-28T03:01:35.226Z,101802.25
2022-11-28T03:04:26.813Z,101796.59
2022-11-28T03:07:02.043Z,101798.44
2022-11-28T03:09:51.290Z,101793.72
2022-11-28T03:12:59.130Z,101800.81
2022-11-28T03:15:32.280Z,101798.91
2022-11-28T03:18:10.495Z,101789.72
2022-11-28T03:20:44.741Z,101781.50
2022-11-28T03:23:13.922Z,101787.63
2022-11-28T03:25:50.307Z,101780.56
2022-11-28T03:28:26.716Z,101777.13
2022-11-28T03:31:03.556Z,101777.38
2022-11-28T03:33:33.654Z,101780.16
2022-11-28T03:36:08.866Z,101771.38
2022-11-28T03:38:40.323Z,101771.44
2022-11-28T03:41:15.843Z,101768.78
2022-11-28T03:43:46.991Z,101774.03
2022-11-28T03:46:16.917Z,101782.00
2022-11-28T03:48:46.994Z,101776.50
2022-11-28T03:51:37.298Z,101773.75
2022-11-28T03:54:25.285Z,101770.09
2022-11-28T03:57:15.192Z,101771.94
2022-11-28T03:59:48.055Z,101758.44
2022-11-28T04:02:40.229Z,101770.78
2022-11-28T04:05:20.402Z,101767.44
2022-11-28T04:07:58.477Z,101762.97
2022-11-28T04:10:38.584Z,101754.91
2022-11-28T04:13:14.769Z,101753.94
2022-11-28T04:15:58.819Z,101742.31
2022-11-28T04:18:31.987Z,101749.19
2022-11-28T04:21:12.163Z,101742.84
2022-11-28T04:23:40.883Z,101746.50
2022-11-28T04:26:37.660Z,101739.25
2022-11-28T04:29:09.419Z,101740.00
2022-11-28T04:31:36.960Z,101741.72
2022-11-28T04:34:06.623Z,101739.72
2022-11-28T04:36:35.051Z,101735.22
2022-11-28T04:39:02.238Z,101728.91
2022-11-28T04:41:34.689Z,101720.66
2022-11-28T04:44:15.120Z,101720.47
2022-11-28T04:46:47.324Z,101722.97
2022-11-28T04:49:14.177Z,101717.59
2022-11-28T04:51:54.977Z,101714.72
2022-11-28T04:54:42.031Z,101714.63
2022-11-28T04:57:19.391Z,101721.59
2022-11-28T04:59:46.577Z,101716.25
2022-11-28T05:02:13.682Z,101715.31
2022-11-28T05:04:40.988Z,101707.25
2022-11-28T05:07:08.684Z,101704.59
2022-11-28T05:09:35.897Z,101703.72
2022-11-28T05:12:03.054Z,101693.88
2022-11-28T05:14:29.676Z,101689.44
2022-11-28T05:16:56.216Z,101694.81
2022-11-28T05:19:23.226Z,101695.78
2022-11-28T05:21:49.819Z,101691.28
2022-11-28T05:24:16.485Z,101689.44
2022-11-28T05:26:43.444Z,101689.44
2022-11-28T05:29:10.019Z,101680.47
2022-11-28T05:31:37.513Z,101683.31
2022-11-28T05:34:04.122Z,101691.38
2022-11-28T05:36:30.719Z,101685.06
2022-11-28T05:38:57.336Z,101683.16
2022-11-28T05:41:31.775Z,101677.69
2022-11-28T05:43:58.958Z,101664.19
2022-11-28T05:46:26.097Z,101673.09
2022-11-28T05:48:52.800Z,101674.91
2022-11-28T05:51:19.901Z,101678.34
2022-11-28T05:53:46.452Z,101676.41
2022-11-28T05:56:16.474Z,101678.16
2022-11-28T05:58:43.576Z,101673.75
2022-11-28T06:01:17.202Z,101673.88
2022-11-28T06:03:44.407Z,101673.94
2022-11-28T06:06:20.852Z,101682.00
2022-11-28T06:08:48.658Z,101677.56
2022-11-28T06:11:15.957Z,101678.47
2022-11-28T06:13:43.602Z,101678.34
2022-11-28T06:16:12.078Z,101679.22
2022-11-28T06:18:39.421Z,101683.59
2022-11-28T06:21:07.596Z,101685.44
2022-11-28T06:23:34.163Z,101674.72
2022-11-28T06:26:06.454Z,101680.06
2022-11-28T06:28:33.757Z,101679.09
2022-11-28T06:31:00.373Z,101667.53
2022-11-28T06:33:26.919Z,101678.16
2022-11-28T06:35:59.827Z,101676.03
2022-11-28T06:38:26.375Z,101664.38
2022-11-28T06:40:56.715Z,101668.66
2022-11-28T06:43:23.412Z,101661.47
2022-11-28T06:45:49.965Z,101658.88
2022-11-28T06:48:16.506Z,101656.31
2022-11-28T06:50:43.032Z,101651.06
2022-11-28T06:53:09.547Z,101654.81
2022-11-28T06:55:36.223Z,101651.34
2022-11-28T06:58:02.815Z,101648.78
2022-11-28T07:00:29.377Z,101647.91
2022-11-28T07:02:56.219Z,101647.91
2022-11-28T07:05:22.952Z,101645.34
2022-11-28T07:07:54.260Z,101639.97
2022-11-28T07:10:21.762Z,101644.47
2022-11-28T07:12:56.607Z,101639.88
2022-11-28T07:15:23.592Z,101643.50
2022-11-28T07:17:50.345Z,101643.50
2022-11-28T07:20:17.638Z,101641.72
2022-11-28T07:22:46.848Z,101640.72
2022-11-28T07:25:14.870Z,101651.34
2022-11-28T07:27:42.184Z,101657.47
2022-11-28T07:30:10.104Z,101658.25
2022-11-28T07:32:39.630Z,101650.97
2022-11-28T07:35:08.329Z,101649.91
2022-11-28T07:37:35.118Z,101656.88
2022-11-28T07:40:01.772Z,101658.59
2022-11-28T07:42:28.367Z,101650.34
2022-11-28T07:44:54.938Z,101660.00
2022-11-28T07:47:22.089Z,101650.16
2022-11-28T07:49:48.603Z,101655.31
2022-11-28T07:52:15.368Z,101658.84
2022-11-28T07:54:42.133Z,101664.97
2022-11-28T07:57:13.211Z,101662.13
2022-11-28T07:59:40.325Z,101662.00
2022-11-28T08:02:07.394Z,101657.63
2022-11-28T08:04:34.179Z,101662.75
2022-11-28T08:07:00.667Z,101656.53
2022-11-28T08:09:27.206Z,101650.25
2022-11-28T08:11:56.379Z,101650.88
2022-11-28T08:14:23.254Z,101651.75
2022-11-28T08:16:49.822Z,101638.22
2022-11-28T08:19:16.590Z,101633.63
2022-11-28T08:21:43.276Z,101632.66
2022-11-28T08:24:11.114Z,101634.38
2022-11-28T08:26:38.199Z,101634.50
2022-11-28T08:29:04.782Z,101639.88
2022-11-28T08:31:34.067Z,101641.34
2022-11-28T08:34:02.278Z,101645.84
2022-11-28T08:36:29.530Z,101638.56
2022-11-28T08:39:16.663Z,101638.56
2022-11-28T08:41:43.315Z,101642.09
2022-11-28T08:44:09.946Z,101633.97
2022-11-28T08:46:36.727Z,101641.06
2022-11-28T08:49:04.734Z,101642.00
2022-11-28T08:51:31.835Z,101645.53
2022-11-28T08:53:59.846Z,101644.50
2022-11-28T08:56:27.190Z,101645.25
2022-11-28T08:58:54.467Z,101638.06
2022-11-28T09:01:23.051Z,101632.78
2022-11-28T09:03:49.939Z,101636.22
2022-11-28T09:06:17.211Z,101638.59
2022-11-28T09:08:44.453Z,101639.34
2022-11-28T09:11:13.316Z,101631.00
2022-11-28T09:13:40.174Z,101627.13
2022-11-28T09:16:07.493Z,101626.94
2022-11-28T09:18:34.147Z,101624.78
2022-11-28T09:21:01.818Z,101614.63
2022-11-28T09:23:29.225Z,101619.75
2022-11-28T09:25:56.514Z,101622.25
2022-11-28T09:28:23.944Z,101615.91
2022-11-28T09:30:50.503Z,101608.50
2022-11-28T09:33:17.030Z,101610.00
2022-11-28T09:35:43.603Z,101607.00
2022-11-28T09:38:10.069Z,101611.19
2022-11-28T09:40:42.732Z,101612.78
2022-11-28T09:43:38.640Z,101605.28
2022-11-28T09:46:10.061Z,101598.59
2022-11-28T09:48:43.406Z,101596.47
2022-11-28T09:51:22.620Z,101590.66
2022-11-28T09:54:27.737Z,101599.03
2022-11-28T09:56:54.407Z,101587.19
2022-11-28T09:59:25.861Z,101594.06
2022-11-28T10:02:13.735Z,101591.03
2022-11-28T10:04:51.635Z,101590.81
2022-11-28T10:07:55.184Z,101586.94
2022-11-28T10:10:35.295Z,101579.50
2022-11-28T10:13:23.089Z,101577.47
2022-11-28T10:16:15.730Z,101574.47
2022-11-28T10:18:52.609Z,101573.38
2022-11-28T10:21:35.677Z,101573.91
2022-11-28T10:24:05.694Z,101561.97
2022-11-28T10:26:41.764Z,101562.19
2022-11-28T10:29:34.710Z,101561.84
2022-11-28T10:32:03.962Z,101554.41
2022-11-28T10:34:49.143Z,101555.91
2022-11-28T10:37:24.996Z,101556.53
2022-11-28T10:39:52.211Z,101543.84
2022-11-28T10:42:23.648Z,101532.94
2022-11-28T10:44:57.645Z,101538.97
2022-11-28T10:47:39.683Z,101531.53
2022-11-28T10:50:32.046Z,101530.78
2022-11-28T10:53:02.387Z,101530.53
2022-11-28T10:55:37.875Z,101527.00
2022-11-28T10:58:14.930Z,101518.09
2022-11-28T11:00:45.241Z,101514.75
2022-11-28T11:03:14.110Z,101511.34
2022-11-28T11:05:41.447Z,101519.28
2022-11-28T11:08:10.758Z,101522.72
2022-11-28T11:10:44.363Z,101518.09
2022-11-28T11:13:23.696Z,101513.56
2022-11-28T11:15:58.871Z,101511.72
2022-11-28T11:18:29.531Z,101502.59
2022-11-28T11:21:15.735Z,101498.81
2022-11-28T11:23:42.747Z,101496.84
2022-11-28T11:26:26.430Z,101504.81
2022-11-28T11:28:53.298Z,101496.59
2022-11-28T11:31:26.664Z,101491.97
2022-11-28T11:34:02.872Z,101486.59
2022-11-28T11:36:32.499Z,101485.63
2022-11-28T11:39:11.392Z,101479.91
2022-11-28T11:41:40.099Z,101479.66
2022-11-28T11:44:15.840Z,101482.09
2022-11-28T11:47:05.401Z,101472.31
2022-11-28T11:49:39.329Z,101473.31
2022-11-28T11:52:14.618Z,101467.41
2022-11-28T11:54:47.166Z,101464.13
2022-11-28T12:00:07.941Z,101472.03
2022-11-28T12:02:46.886Z,101462.66
2022-11-28T12:05:17.107Z,101456.63
2022-11-28T12:07:46.672Z,101456.00
2022-11-28T12:10:17.329Z,101457.50
2022-11-28T12:12:43.812Z,101453.84
2022-11-28T12:15:33.066Z,101452.13
2022-11-28T12:18:15.733Z,101449.56
2022-11-28T12:20:48.724Z,101447.63
2022-11-28T12:23:17.579Z,101446.50
2022-11-28T12:25:44.368Z,101443.72
2022-11-28T12:28:23.121Z,101441.13
2022-11-28T12:31:15.348Z,101441.13
2022-11-28T12:33:45.004Z,101444.78
2022-11-28T12:36:42.097Z,101446.72
2022-11-28T12:39:18.622Z,101450.31
2022-11-28T12:42:13.167Z,101445.66
2022-11-28T12:44:55.093Z,101443.19
2022-11-28T12:47:37.905Z,101438.91
2022-11-28T12:50:15.179Z,101438.06
2022-11-28T12:53:18.779Z,101437.19
2022-11-28T12:56:03.655Z,101439.50
2022-11-28T12:58:35.531Z,101433.63
2022-11-28T13:01:13.517Z,101433.63
2022-11-28T13:04:17.740Z,101436.69
2022-11-28T13:07:02.607Z,101432.25
2022-11-28T13:09:38.149Z,101429.38
2022-11-28T13:12:28.513Z,101427.00
2022-11-28T13:14:57.014Z,101427.34
2022-11-28T13:17:48.451Z,101425.03
2022-11-28T13:20:22.739Z,101426.88
2022-11-28T13:22:55.028Z,101432.09
2022-11-28T13:25:47.807Z,101425.38
2022-11-28T13:28:36.291Z,101421.31
2022-11-28T13:31:07.349Z,101422.19
2022-11-28T13:33:56.332Z,101418.81
2022-11-28T13:40:03.439Z,101405.50
2022-11-28T13:45:39.142Z,101416.16
2022-11-28T13:48:57.417Z,101408.31
2022-11-28T13:51:30.975Z,101411.88
2022-11-28T13:54:17.546Z,101405.50
2022-11-28T13:57:05.485Z,101408.94
2022-11-28T13:59:32.521Z,101404.19
2022-11-28T14:02:05.798Z,101404.91
2022-11-28T14:04:33.013Z,101402.84
2022-11-28T14:07:02.893Z,101402.97
2022-11-28T14:09:53.748Z,101404.28
2022-11-28T14:12:29.865Z,101407.13
2022-11-28T14:15:07.259Z,101400.38
2022-11-28T14:17:45.853Z,101403.63
2022-11-28T14:20:32.754Z,101403.88
2022-11-28T14:23:05.425Z,101400.47
2022-11-28T14:25:34.346Z,101397.53
2022-11-28T14:28:06.274Z,101398.06
2022-11-28T14:30:37.371Z,101401.47
2022-11-28T14:33:21.279Z,101400.50
2022-11-28T14:35:50.867Z,101398.78
2022-11-28T14:38:33.766Z,101406.13
2022-11-28T14:41:05.788Z,101404.38
2022-11-28T14:43:48.212Z,101401.59
2022-11-28T14:46:20.776Z,101408.66
2022-11-28T14:48:59.681Z,101395.09
2022-11-28T14:51:56.518Z,101399.53
2022-11-28T14:54:37.833Z,101397.06
2022-11-28T14:57:13.578Z,101401.69
2022-11-28T14:59:40.174Z,101395.59
2022-11-28T15:02:12.818Z,101398.38
2022-11-28T15:04:57.869Z,101406.59
2022-11-28T15:07:34.562Z,101403.25
2022-11-28T15:10:09.941Z,101408.88
2022-11-28T15:12:58.834Z,101401.00
2022-11-28T15:15:25.509Z,101409.16
2022-11-28T15:17:53.799Z,101407.47
2022-11-28T15:20:28.457Z,101407.47
2022-11-28T15:22:55.003Z,101403.06
2022-11-28T15:25:35.346Z,101401.47
2022-11-28T15:28:15.180Z,101399.97
2022-11-28T15:30:47.312Z,101401.81
2022-11-28T15:33:14.401Z,101405.47
2022-11-28T15:35:55.367Z,101411.81
2022-11-28T15:38:21.988Z,101406.69
2022-11-28T15:40:52.958Z,101410.13
2022-11-28T15:43:19.980Z,101399.59
2022-11-28T15:45:50.774Z,101397.91
2022-11-28T15:48:40.062Z,101400.81
2022-11-28T15:51:08.551Z,101396.41
2022-11-28T15:53:40.516Z,101394.47
2022-11-28T15:56:07.701Z,101398.00
2022-11-28T15:58:34.390Z,101392.38
2022-11-28T16:01:13.010Z,101393.13
2022-11-28T16:03:49.955Z,101392.91
2022-11-28T16:06:18.002Z,101381.19
2022-11-28T16:08:51.857Z,101385.59
2022-11-28T16:11:20.086Z,101389.25
2022-11-28T16:13:47.393Z,101395.47
2022-11-28T16:16:19.771Z,101393.03
2022-11-28T16:18:53.553Z,101385.97
2022-11-28T16:21:26.647Z,101393.03
2022-11-28T16:23:53.170Z,101393.03
2022-11-28T16:26:30.001Z,101386.91
2022-11-28T16:29:03.797Z,101380.69
2022-11-28T16:31:30.756Z,101379.94
2022-11-28T16:33:58.082Z,101379.22
2022-11-28T16:36:36.388Z,101373.00
2022-11-28T16:39:10.760Z,101381.03
2022-11-28T16:41:43.080Z,101376.63
2022-11-28T16:44:15.175Z,101374.06
2022-11-28T16:46:55.355Z,101380.50
2022-11-28T16:49:38.722Z,101377.09
2022-11-28T16:52:26.223Z,101368.06
2022-11-28T16:54:54.021Z,101363.44
2022-11-28T16:57:20.902Z,101366.88
2022-11-28T16:59:49.223Z,101367.72
2022-11-28T17:02:20.468Z,101360.50
2022-11-28T17:04:48.156Z,101370.63
2022-11-28T17:07:17.172Z,101366.44
2022-11-28T17:09:45.689Z,101365.72
2022-11-28T17:12:30.224Z,101356.06
2022-11-28T17:14:58.289Z,101360.59
2022-11-28T17:17:25.280Z,101365.13
2022-11-28T17:19:52.251Z,101366.31
2022-11-28T17:22:24.120Z,101357.63
2022-11-28T17:24:51.832Z,101359.66
2022-11-28T17:27:18.481Z,101359.81
2022-11-28T17:29:45.158Z,101359.91
2022-11-28T17:32:13.524Z,101360.75
2022-11-28T17:34:42.040Z,101357.22
2022-11-28T17:37:09.389Z,101367.97
2022-11-28T17:39:35.959Z,101371.59
2022-11-28T17:42:02.627Z,101361.84
2022-11-28T17:44:34.451Z,101360.03
2022-11-28T17:47:02.225Z,101364.53
2022-11-28T17:49:29.547Z,101362.59
2022-11-28T17:51:56.724Z,101358.19
2022-11-28T17:54:24.756Z,101363.56
2022-11-28T17:56:52.631Z,101350.38
2022-11-28T17:59:22.035Z,101356.69
2022-11-28T18:01:48.757Z,101349.72
2022-11-28T18:04:17.950Z,101352.31
2022-11-28T18:06:45.794Z,101346.94
2022-11-28T18:09:13.260Z,101341.59
2022-11-28T18:11:41.004Z,101342.66
2022-11-28T18:14:08.054Z,101347.19
2022-11-28T18:16:36.400Z,101346.19
2022-11-28T18:19:04.217Z,101346.31
2022-11-28T18:21:31.357Z,101347.41
2022-11-28T18:23:58.073Z,101348.50
2022-11-28T18:26:26.065Z,101343.34
2022-11-28T18:28:52.939Z,101353.47
2022-11-28T18:31:25.304Z,101347.47
2022-11-28T18:33:56.141Z,101348.53
2022-11-28T18:36:27.306Z,101349.50
2022-11-28T18:39:07.421Z,101348.88
2022-11-28T18:41:34.047Z,101348.16
2022-11-28T18:44:03.775Z,101347.41
2022-11-28T18:46:31.008Z,101338.72
2022-11-28T18:48:57.600Z,101341.50
2022-11-28T18:51:28.941Z,101344.28
2022-11-28T18:53:56.475Z,101340.00
2022-11-28T18:56:23.675Z,101345.59
2022-11-28T18:58:51.930Z,101343.28
2022-11-28T19:01:19.652Z,101341.97
2022-11-28T19:03:51.470Z,101344.25
2022-11-28T19:06:18.493Z,101348.13
2022-11-28T19:08:45.085Z,101339.44
2022-11-28T19:11:14.570Z,101343.28
2022-11-28T19:13:45.714Z,101347.91
2022-11-28T19:16:32.862Z,101340.84
2022-11-28T19:19:01.397Z,101343.28
2022-11-28T19:21:31.500Z,101336.66
2022-11-28T19:23:59.575Z,101337.06
2022-11-28T19:26:28.973Z,101342.22
2022-11-28T19:28:55.915Z,101343.72
2022-11-28T19:31:26.999Z,101334.56
2022-11-28T19:34:04.225Z,101339.59
2022-11-28T19:36:32.895Z,101349.25
2022-11-28T19:39:00.286Z,101350.09
2022-11-28T19:41:27.999Z,101343.28
2022-11-28T19:43:54.570Z,101334.47
2022-11-28T19:46:21.358Z,101339.84
2022-11-28T19:48:48.008Z,101343.47
2022-11-28T19:51:15.839Z,101338.09
2022-11-28T19:53:43.427Z,101334.47
2022-11-28T19:56:17.122Z,101332.75
2022-11-28T19:58:44.034Z,101335.44
2022-11-28T20:01:16.090Z,101333.84
2022-11-28T20:03:43.465Z,101325.88
2022-11-28T20:06:12.407Z,101325.69
2022-11-28T20:08:39.603Z,101331.16
2022-11-28T20:11:08.528Z,101329.56
2022-11-28T20:13:35.232Z,101333.28
2022-11-28T20:16:03.795Z,101336.97
2022-11-28T20:18:30.316Z,101342.31
2022-11-28T20:21:06.684Z,101338.78
2022-11-28T20:23:33.411Z,101334.28
2022-11-28T20:26:06.249Z,101334.28
2022-11-28T20:28:34.403Z,101338.78
2022-11-28T20:31:01.463Z,101335.22
2022-11-28T20:33:28.145Z,101341.56
2022-11-28T20:36:04.907Z,101328.28
2022-11-28T20:38:31.511Z,101335.47
2022-11-28T20:41:02.793Z,101335.56
2022-11-28T20:43:33.444Z,101336.66
2022-11-28T20:46:04.941Z,101335.50
2022-11-28T20:48:31.709Z,101337.75
2022-11-28T20:50:58.814Z,101337.41
2022-11-28T20:53:27.035Z,101334.00
2022-11-28T20:56:01.823Z,101341.16
2022-11-28T20:58:29.118Z,101341.91
2022-11-28T21:00:56.403Z,101337.09
2022-11-28T21:03:23.675Z,101338.38
2022-11-28T21:05:50.491Z,101341.13
2022-11-28T21:08:17.074Z,101335.69
2022-11-28T21:10:43.860Z,101345.22
2022-11-28T21:13:10.542Z,101344.16
2022-11-28T21:15:47.584Z,101333.34
2022-11-28T21:18:15.286Z,101337.72
2022-11-28T21:20:45.440Z,101335.88
2022-11-28T21:23:14.137Z,101341.25
2022-11-28T21:25:41.915Z,101340.28
2022-11-28T21:28:10.358Z,101336.63
2022-11-28T21:30:45.882Z,101340.28
2022-11-28T21:33:13.050Z,101339.53
2022-11-28T21:35:40.065Z,101335.16
2022-11-28T21:38:07.033Z,101332.50
2022-11-28T21:40:33.781Z,101330.66
2022-11-28T21:43:00.361Z,101330.75
2022-11-28T21:45:27.298Z,101327.22
2022-11-28T21:47:54.023Z,101328.06
2022-11-28T21:50:20.719Z,101335.25
2022-11-28T21:52:47.394Z,101332.59
2022-11-28T21:55:13.942Z,101329.06
2022-11-28T21:57:42.372Z,101330.97
2022-11-28T22:00:25.608Z,101337.28
2022-11-28T22:03:03.300Z,101333.75
2022-11-28T22:05:31.478Z,101335.59
2022-11-28T22:07:58.261Z,101329.34
2022-11-28T22:10:24.865Z,101333.84
2022-11-28T22:12:51.410Z,101333.09
2022-11-28T22:15:18.293Z,101334.09
2022-11-28T22:17:44.802Z,101335.03
2022-11-28T22:20:11.822Z,101333.19
2022-11-28T22:22:38.468Z,101328.81
2022-11-28T22:25:05.474Z,101328.81
2022-11-28T22:27:32.333Z,101326.16
2022-11-28T22:29:59.000Z,101323.91
2022-11-28T22:32:25.460Z,101329.81
2022-11-28T22:34:51.987Z,101331.41
2022-11-28T22:37:18.563Z,101327.44
2022-11-28T22:39:45.028Z,101337.09
2022-11-28T22:42:11.578Z,101325.41
2022-11-28T22:44:38.103Z,101331.41
2022-11-28T22:47:04.858Z,101331.19
2022-11-28T22:49:31.438Z,101324.88
2022-11-28T22:51:58.027Z,101322.94
2022-11-28T22:54:24.495Z,101326.47
2022-11-28T22:56:53.001Z,101328.06
2022-11-28T22:59:19.576Z,101317.38
2022-11-28T23:01:46.161Z,101323.38
2022-11-28T23:04:12.937Z,101317.91
2022-11-28T23:06:39.613Z,101328.63
2022-11-28T23:09:07.865Z,101323.13
2022-11-28T23:11:36.052Z,101321.34
2022-11-28T23:14:03.195Z,101327.56
2022-11-28T23:16:32.550Z,101330.22
2022-11-28T23:19:01.043Z,101326.81
2022-11-28T23:21:33.200Z,101324.03
2022-11-28T23:23:59.691Z,101320.38
2022-11-28T23:26:28.492Z,101322.28
2022-11-28T23:28:55.637Z,101318.66
2022-11-28T23:31:25.158Z,101321.44
2022-11-28T23:33:52.865Z,101310.06
2022-11-28T23:36:27.568Z,101301.09
2022-11-28T23:38:56.008Z,101308.16
2022-11-28T23:41:23.101Z,101303.75
2022-11-28T23:43:50.081Z,101304.50
2022-11-28T23:46:17.545Z,101298.16
2022-11-28T23:48:44.981Z,101302.59
2022-11-28T23:51:15.142Z,101299.03
2022-11-28T23:53:42.376Z,101295.59
2022-11-28T23:56:11.951Z,101292.91
2022-11-28T23:58:39.301Z,101292.06
